createdAt,value
2018-09-04T00:04:56.619Z,91.5
2018-09-04T00:09:56.766Z,94.3
2018-09-04T00:14:56.534Z,93
2018-09-04T00:19:57.253Z,94.1
2018-09-04T00:24:56.532Z,94.8
2018-09-04T00:29:56.556Z,95
2018-09-04T00:34:56.609Z,92.7
2018-09-04T00:39:56.259Z,93.2
2018-09-04T00:44:56.652Z,91.5
2018-09-04T00:49:56.645Z,93.8
2018-09-04T00:54:56.441Z,95
2018-09-04T00:59:56.423Z,92.3
2018-09-04T01:04:56.433Z,92.5
2018-09-04T01:09:57.458Z,94
2018-09-04T01:14:56.601Z,94
2018-09-04T01:19:56.430Z,93.9
2018-09-04T01:24:56.966Z,94.6
2018-09-04T01:29:57.174Z,92.9
2018-09-04T01:34:56.632Z,94.7
2018-09-04T01:39:56.599Z,94.3
2018-09-04T01:44:59.204Z,95.3
2018-09-04T01:49:58.232Z,94.8
2018-09-04T01:54:59.349Z,94.7
2018-09-04T01:59:56.396Z,95.9
2018-09-04T02:04:57.218Z,93.6
2018-09-04T02:09:56.457Z,92.7
2018-09-04T02:14:56.448Z,94.1
2018-09-04T02:19:56.356Z,91.5
2018-09-04T02:24:56.232Z,92.1
2018-09-04T02:29:56.695Z,90.9
2018-09-04T02:34:56.256Z,92.1
2018-09-04T02:39:56.388Z,95
2018-09-04T02:44:56.548Z,95.8
2018-09-04T02:49:56.369Z,93.5
2018-09-04T02:54:56.410Z,92
2018-09-04T02:59:57.329Z,94.6
2018-09-04T03:04:57.789Z,92.8
2018-09-04T03:09:56.883Z,93.5
2018-09-04T03:14:56.588Z,93.8
2018-09-04T03:19:57.378Z,93.2
2018-09-04T03:24:56.334Z,93.5
2018-09-04T03:29:56.145Z,93.8
2018-09-04T03:34:56.169Z,93.9
2018-09-04T03:39:56.465Z,95
2018-09-04T03:44:56.325Z,94.9
2018-09-04T03:49:56.017Z,94.9
2018-09-04T03:54:56.603Z,96.6
2018-09-04T03:59:56.214Z,93.6
2018-09-04T04:04:56.241Z,93.6
2018-09-04T04:09:55.879Z,99.2
2018-09-04T04:14:56.030Z,98.4
2018-09-04T04:19:56.159Z,94.6
2018-09-04T04:24:56.252Z,95
2018-09-04T04:29:55.857Z,94.6
2018-09-04T04:34:56.111Z,96.4
2018-09-04T04:39:56.373Z,97.4
2018-09-04T04:44:55.974Z,97.6
2018-09-04T04:49:55.855Z,97.7
2018-09-04T04:54:56.037Z,98.8
2018-09-04T04:59:55.908Z,99.2
2018-09-04T05:04:56.182Z,96.2
2018-09-04T05:09:56.150Z,96.9
2018-09-04T05:14:56.091Z,95.5
2018-09-04T05:19:55.823Z,94
2018-09-04T05:24:55.992Z,90.3
2018-09-04T05:29:55.881Z,94.4
2018-09-04T05:34:55.799Z,96.5
2018-09-04T05:39:55.795Z,96.1
2018-09-04T05:44:56.172Z,92.6
2018-09-04T05:49:56.006Z,92.3
2018-09-04T05:54:55.802Z,93.6
2018-09-04T05:59:56.004Z,93.3
2018-09-04T06:04:55.952Z,94.4
2018-09-04T06:09:55.901Z,95.9
2018-09-04T06:14:55.803Z,91.1
2018-09-04T06:19:56.061Z,91.3
2018-09-04T06:24:55.775Z,92.2
2018-09-04T06:29:55.989Z,94.6
2018-09-04T06:34:55.718Z,92.2
2018-09-04T06:39:55.847Z,94.7
2018-09-04T06:44:56.012Z,94.5
2018-09-04T06:49:55.692Z,94.8
2018-09-04T06:54:55.808Z,90.2
2018-09-04T06:59:55.747Z,90.6
2018-09-04T07:04:55.847Z,88.7
2018-09-04T07:09:56.319Z,86.5
2018-09-04T07:14:55.677Z,87.3
2018-09-04T07:19:55.833Z,87.6
2018-09-04T07:24:55.708Z,88.8
2018-09-04T07:29:55.672Z,93.3
2018-09-04T07:34:55.761Z,87.4
2018-09-04T07:39:55.875Z,90.6
2018-09-04T07:44:55.739Z,87.9
2018-09-04T07:49:55.843Z,87.8
2018-09-04T07:54:55.845Z,86.3
2018-09-04T07:59:56.022Z,87.2
2018-09-04T08:04:55.804Z,89.2
2018-09-04T08:09:55.712Z,86.3
2018-09-04T08:14:55.786Z,89.3
2018-09-04T08:19:55.485Z,87.5
2018-09-04T08:24:55.598Z,90
2018-09-04T08:29:55.647Z,88.6
2018-09-04T08:34:55.514Z,87.2
2018-09-04T08:39:55.560Z,84.1
2018-09-04T08:44:55.881Z,83.8
2018-09-04T08:49:55.570Z,89.2
2018-09-04T08:54:55.535Z,88.6
2018-09-04T08:59:55.673Z,86.7
2018-09-04T09:04:55.457Z,82.7
2018-09-04T09:09:55.836Z,80.4
2018-09-04T09:14:55.637Z,78.5
2018-09-04T09:19:55.667Z,78.2
2018-09-04T09:24:55.436Z,78.7
2018-09-04T09:29:55.880Z,74.8
2018-09-04T09:34:55.626Z,76.8
2018-09-04T09:39:55.635Z,73.7
2018-09-04T09:44:55.612Z,75.7
2018-09-04T09:49:55.736Z,76.4
2018-09-04T09:54:55.394Z,75.8
2018-09-04T09:59:55.871Z,77.3
2018-09-04T10:04:55.408Z,74.7
2018-09-04T10:09:55.521Z,76.1
2018-09-04T10:14:55.537Z,73.4
2018-09-04T10:19:55.774Z,73.8
2018-09-04T10:24:55.743Z,65.5
2018-09-04T10:29:55.549Z,69.9
2018-09-04T10:34:55.679Z,71
2018-09-04T10:39:55.484Z,69.7
2018-09-04T10:44:55.313Z,67.8
2018-09-04T10:49:55.494Z,65.1
2018-09-04T10:54:55.317Z,67.7
2018-09-04T10:59:55.540Z,70.9
2018-09-04T11:04:55.389Z,71.4
2018-09-04T11:09:55.549Z,71.2
2018-09-04T11:14:55.438Z,68.8
2018-09-04T11:19:55.466Z,66.8
2018-09-04T11:24:55.292Z,66.1
2018-09-04T11:29:55.262Z,69.7
2018-09-04T11:34:55.550Z,64.6
2018-09-04T11:39:55.219Z,63.1
2018-09-04T11:44:55.432Z,67.9
2018-09-04T11:49:55.451Z,65.7
2018-09-04T11:54:55.426Z,63.8
2018-09-04T11:59:55.214Z,65.9
2018-09-04T12:04:55.489Z,65.4
2018-09-04T12:09:55.375Z,66.8
2018-09-04T12:14:55.354Z,64.2
2018-09-04T12:19:55.438Z,63.6
2018-09-04T12:24:55.357Z,64.7
2018-09-04T12:29:55.455Z,62.9
2018-09-04T12:34:55.437Z,60
2018-09-04T12:39:55.235Z,61.5
2018-09-04T12:44:55.184Z,57.8
2018-09-04T12:49:55.396Z,59.8
2018-09-04T12:54:55.316Z,59.2
2018-09-04T12:59:55.493Z,55.7
2018-09-04T13:04:55.291Z,57.1
2018-09-04T13:09:55.316Z,58.2
2018-09-04T13:14:55.342Z,60.4
2018-09-04T13:19:55.069Z,61.1
2018-09-04T13:24:55.354Z,60.9
2018-09-04T13:29:55.046Z,59.2
2018-09-04T13:34:55.302Z,57.8
2018-09-04T13:39:55.107Z,58.7
2018-09-04T13:44:55.380Z,58.4
2018-09-04T13:49:55.386Z,58.6
2018-09-04T13:54:55.088Z,60.5
2018-09-04T13:59:55.011Z,57.3
2018-09-04T14:04:55.272Z,59
2018-09-04T14:09:55.075Z,57.8
2018-09-04T14:14:55.068Z,56.6
2018-09-04T14:19:55.282Z,57.9
2018-09-04T14:24:55.072Z,60.1
2018-09-04T14:30:15.541Z,59.5
2018-09-04T14:34:55.249Z,64
2018-09-04T14:39:55.583Z,62.6
2018-09-04T14:44:55.096Z,63.8
2018-09-04T14:49:55.239Z,64.4
2018-09-04T14:54:55.214Z,65
2018-09-04T14:59:54.946Z,66.1
2018-09-04T15:04:55.095Z,66.1
2018-09-04T15:09:54.979Z,66.8
2018-09-04T15:14:55.171Z,65.6
2018-09-04T15:19:55.381Z,65.3
2018-09-04T15:24:55.145Z,65.5
2018-09-04T15:29:55.311Z,64.7
2018-09-04T15:34:54.978Z,66.4
2018-09-04T15:39:55.046Z,67.2
2018-09-04T15:44:55.045Z,64.6
2018-09-04T15:49:54.921Z,64.8
2018-09-04T15:54:55.098Z,64.8
2018-09-04T15:59:55.032Z,65.4
2018-09-04T16:04:55.160Z,64.9
2018-09-04T16:09:55.087Z,66.3
2018-09-04T16:14:55.130Z,63.7
2018-09-04T16:19:55.286Z,65.1
2018-09-04T16:24:54.999Z,62.8
2018-09-04T16:29:54.934Z,65.1
2018-09-04T16:34:54.912Z,64.7
2018-09-04T16:39:54.839Z,64.6
2018-09-04T16:44:54.970Z,66.2
2018-09-04T16:49:55.092Z,67.6
2018-09-04T16:54:54.914Z,67.5
2018-09-04T16:59:54.877Z,67.9
2018-09-04T17:04:54.964Z,68.3
2018-09-04T17:09:55.003Z,69.7
2018-09-04T17:14:54.925Z,71.5
2018-09-04T17:19:55.003Z,71.5
2018-09-04T17:24:54.870Z,71.1
2018-09-04T17:29:55.086Z,72
2018-09-04T17:34:54.840Z,74.1
2018-09-04T17:39:54.803Z,74.4
2018-09-04T17:44:54.728Z,74.4
2018-09-04T17:49:54.820Z,71.7
2018-09-04T17:54:54.974Z,72.4
2018-09-04T17:59:54.880Z,74.2
2018-09-04T18:04:54.840Z,73
2018-09-04T18:09:54.810Z,74.1
2018-09-04T18:14:54.863Z,73.4
2018-09-04T18:19:54.979Z,74.2
2018-09-04T18:24:54.999Z,74.9
2018-09-04T18:29:54.669Z,77.7
2018-09-04T18:34:54.728Z,76.9
2018-09-04T18:39:54.607Z,77
2018-09-04T18:44:54.911Z,78.2
2018-09-04T18:49:54.948Z,74.8
2018-09-04T18:54:55.150Z,78.4
2018-09-04T18:59:54.941Z,77.7
2018-09-04T19:04:54.782Z,79.1
2018-09-04T19:09:55.021Z,76.5
2018-09-04T19:14:54.808Z,76
2018-09-04T19:19:55.641Z,76.3
2018-09-04T19:24:54.967Z,77.1
2018-09-04T19:30:00.029Z,77.9
2018-09-04T19:34:55.128Z,78.5
2018-09-04T19:40:02.985Z,76.6
2018-09-04T19:46:00.828Z,78.9
2018-09-04T19:49:55.351Z,78.2
2018-09-04T19:55:38.823Z,77.1
2018-09-04T19:59:56.842Z,80.1
2018-09-04T20:04:59.892Z,77.9
2018-09-04T20:10:07.308Z,79.8
2018-09-04T20:15:45.123Z,80.9
2018-09-04T20:19:59.568Z,80.2
2018-09-04T20:25:18.999Z,81.3
2018-09-04T20:29:54.678Z,81.6
2018-09-04T20:35:26.354Z,83.8
2018-09-04T20:39:54.526Z,81.2
2018-09-04T20:44:55.713Z,82.8
2018-09-04T20:49:55.871Z,83.9
2018-09-04T20:54:54.705Z,83.5
2018-09-04T20:59:55.070Z,82.9
2018-09-04T21:04:55.412Z,83.9
2018-09-04T21:09:54.768Z,82.5
2018-09-04T21:14:54.961Z,85
2018-09-04T21:19:55.083Z,84.7
2018-09-04T21:24:55.025Z,82.7
2018-09-04T21:29:55.073Z,82.6
2018-09-04T21:34:54.927Z,85.4
2018-09-04T21:39:55.022Z,85.4
2018-09-04T21:44:55.680Z,85.1
2018-09-04T21:49:55.191Z,84
2018-09-04T21:54:54.749Z,84.9
2018-09-04T21:59:55.189Z,83.7
2018-09-04T22:04:55.603Z,85.2
2018-09-04T22:09:54.807Z,84
2018-09-04T22:15:08.981Z,85.1
2018-09-04T22:19:55.963Z,86
2018-09-04T22:24:55.176Z,84.2
2018-09-04T22:29:55.184Z,85.3
2018-09-04T22:34:54.854Z,87.2
2018-09-04T22:39:54.926Z,82.7
2018-09-04T22:44:54.935Z,83.5
2018-09-04T22:49:54.780Z,87.3
2018-09-04T22:54:54.784Z,86.1
2018-09-04T22:59:54.776Z,87.6
2018-09-04T23:04:54.566Z,85.8
2018-09-04T23:09:54.570Z,85.1
2018-09-04T23:14:54.700Z,86.6
2018-09-04T23:19:54.590Z,89.2
2018-09-04T23:24:56.066Z,90
2018-09-04T23:29:54.473Z,89
2018-09-04T23:34:54.463Z,89.7
2018-09-04T23:39:54.774Z,89.9
2018-09-04T23:44:54.508Z,90.1
2018-09-04T23:49:54.646Z,87.5
2018-09-04T23:54:54.672Z,88.1
2018-09-04T23:59:55.956Z,89.9
